Pueblo Of Acoma, NM

2:22 AM MDT on September 03, 2014 (GMT -0600)
Albuquerque Double Eagle | Change Station
CLOSE
Current Station
Airport
Location: Albuquerque Double Eagle,
Elevation: 5837 ft
Nearby Weather Stations

Elev 5837 ft 35.15 °N, 106.79 °W | Updated 7 minutes ago

Clear
Clear
67 °F
Feels Like 67 °F
N
0
Wind Variable Wind from North

Today
High -- | Low -- °F
--% Chance of Precip.
Yesterday
High -- | Low -- °F
Precip. -- in
6:44 AM 7:34 PM
First Quarter, 60% visible
Pressure 30.07 in
Visibility 10.0 miles
Clouds Clear
Dew Point 32 °F
Humidity 27%
Rainfall 0.00 in
Snow Depth Not available.
UV 0 out of 12
Pollen 8.70 out of 12
Air Quality Not available.
Flu Activity Not available.
METAR KAEG 030815Z AUTO 00000KT 10SM CLR 20/00 A3007 RMK AO2 T01950000

More Conditions Fewer Conditions

Pressure 30.07 in
Visibility 10.0 miles
Clouds Clear
Dew Point 32 °F
Humidity 27%
Rainfall 0.00 in
Snow Depth Not available.
UV 0 out of 12
Pollen 8.70 out of 12
Air Quality Not available.
Flu Activity Not available.
METAR KAEG 030815Z AUTO 00000KT 10SM CLR 20/00 A3007 RMK AO2 T01950000

More Conditions Fewer Conditions

10-Day Weather Forecast

Almanac

Astronomy

Sep. 03, 2014 Rise Set
Actual Time 6:44 AM MDT 7:34 PM MDT
Civil Twilight 6:18 AM MDT 7:59 PM MDT
Nautical Twilight 5:48 AM MDT 8:30 PM MDT
Astronomical Twilight 5:16 AM MDT 9:01 PM MDT
Moon 3:11 PM MDT 12:48 AM MDT
Length of Visible Light 13h 41m
Length of Day
12h 49m
Tomorrow will be 2m 8s shorter.
First Quarter, 60% of the Moon is Illuminated
Today
First Quarter
Sep 8
Full
Sep 15
Last Quarter
Sep 24
New
Oct 1
First Quarter

Today's Extremes

State Highs State Lows

Community

WunderPhotos

Upload Photos

1,749,902 photos uploaded!

Nearby

Snow Depth

Station Depth Elevation
Rice Park 0 in 8460 ft
Senorita Divide #2 0 in 8600 ft
Quemazon 1 in 9500 ft
Santa Fe 1 in 11445 ft
Bateman 0 in 9300 ft

Earthquake Activity

City Distance Mag. Time & Date
No recent earthquake activity has been reported nearby.
Minimum magnitude displayed is 2.5.

Coastal Water Temperatures

Place Temperature
No Stations Reporting

Nearby Weather Stations